»·PEaware :: N35VT KMFR-KRDD

N35VT :: KMFR-KRDD

FLIGHT INFORMATION

Flight Status: Arrived
Operator: Privately registered:
United States
More flights under this callsign
Pilot: Jake W. (30069)
Aircraft: Unknown
(LEG2)
More flights by this aircraft type
Origin: KMFR Rogue Valley Intl-Medford
United States
Destination: KRDD Redding Mun
United States
More flights between these airports :: More routes between these airports
Route: BRUTE7 TALEM FJS FOLDS
File this flight plan on PilotEdge
Remarks:
Altitude:
(Current/Filed)
11,000ft
Speed:
(Current/Filed)
260kts
Departed: 17-Sep-20 05:42 PM
Arrived: 17-Sep-20 06:27 PM
Distance/Time
Traveled:
115nm/0:45
Distance/Time
To Go:
Arrived

Flight Plot

Page will automatically refresh every two minutes.

Flight plan parsing failed; only flown route is shown


Map Options




Map Legend


Flown Route
Filed Route
Departure Airport
Arrival Airport
Navaid (VOR, NDB)
Fix

Horizontal Profiles

Position Reports

Time Latitude Longitude Heading Altitude Ground
Speed
17-Sep-20 17:22 42.366880 -122.871519 249 1318ft 0kts
17-Sep-20 17:23 42.366880 -122.871519 249 1318ft 0kts
17-Sep-20 17:24 42.366880 -122.871519 249 1318ft 0kts
17-Sep-20 17:25 42.366880 -122.871519 249 1318ft 0kts
17-Sep-20 17:26 42.366880 -122.871519 249 1318ft 0kts
17-Sep-20 17:27 42.366880 -122.871519 249 1318ft 0kts
17-Sep-20 17:28 42.380684 -122.879680 247 1300ft 0kts
17-Sep-20 17:29 42.380684 -122.879680 247 1300ft 0kts
17-Sep-20 17:30 42.380684 -122.879680 247 1300ft 0kts
17-Sep-20 17:31 42.380684 -122.879680 247 1300ft 0kts
17-Sep-20 17:32 42.380684 -122.879680 247 1300ft 0kts
17-Sep-20 17:33 42.380684 -122.879680 247 1300ft 0kts
17-Sep-20 17:34 42.380684 -122.879680 247 1300ft 0kts
17-Sep-20 17:35 42.380684 -122.879680 247 1300ft 0kts
17-Sep-20 17:36 42.380397 -122.878903 80 1301ft 3kts
17-Sep-20 17:37 42.382516 -122.878910 359 1300ft 4kts
17-Sep-20 17:38 42.385803 -122.880157 59 1295ft 0kts
17-Sep-20 17:39 42.385803 -122.880157 59 1295ft 0kts
17-Sep-20 17:40 42.385803 -122.880157 59 1295ft 0kts
17-Sep-20 17:41 42.375059 -122.873260 160 1478ft 137kts
17-Sep-20 17:42 42.345404 -122.881215 278 3359ft 146kts
17-Sep-20 17:43 42.381972 -122.885300 28 5522ft 167kts
17-Sep-20 17:44 42.398030 -122.825764 81 7498ft 178kts
17-Sep-20 17:45 42.407474 -122.759466 82 9402ft 182kts
17-Sep-20 17:46 42.405660 -122.694008 123 10968ft 189kts
17-Sep-20 17:47 42.375302 -122.621166 129 11000ft 243kts
17-Sep-20 17:48 42.320892 -122.643555 229 11003ft 245kts
17-Sep-20 17:49 42.279018 -122.717558 231 10998ft 248kts
17-Sep-20 17:50 42.240932 -122.795553 243 10998ft 250kts
17-Sep-20 17:51 42.221362 -122.885337 225 10979ft 248kts
17-Sep-20 17:52 42.155807 -122.881993 169 10998ft 250kts
17-Sep-20 17:53 42.086713 -122.871381 176 10998ft 250kts
17-Sep-20 17:54 42.017518 -122.862773 177 11004ft 249kts
17-Sep-20 17:55 41.948589 -122.855093 177 11011ft 248kts
17-Sep-20 17:56 41.879924 -122.846940 176 11018ft 247kts
17-Sep-20 17:57 41.811300 -122.838617 177 11018ft 248kts
17-Sep-20 17:58 41.742713 -122.831401 177 11018ft 248kts
17-Sep-20 17:59 41.673992 -122.824394 178 11018ft 248kts
17-Sep-20 18:00 41.606355 -122.818850 178 11017ft 239kts
17-Sep-20 18:01 41.540686 -122.813352 178 11026ft 235kts
17-Sep-20 18:02 41.475599 -122.807863 178 11026ft 234kts
17-Sep-20 18:03 41.414663 -122.778559 157 11026ft 237kts
17-Sep-20 18:04 41.353538 -122.746778 162 11026ft 236kts
17-Sep-20 18:05 41.291863 -122.717125 164 11026ft 235kts
17-Sep-20 18:06 41.229592 -122.690489 164 11025ft 235kts
17-Sep-20 18:07 41.167558 -122.663925 164 11080ft 234kts
17-Sep-20 18:08 41.104918 -122.639431 166 11076ft 235kts
17-Sep-20 18:09 41.042174 -122.615519 166 11044ft 235kts
17-Sep-20 18:10 40.975703 -122.589972 166 10015ft 257kts
17-Sep-20 18:11 40.906732 -122.563602 166 8998ft 259kts
17-Sep-20 18:12 40.838235 -122.537748 166 8056ft 243kts
17-Sep-20 18:13 40.778873 -122.514856 166 8010ft 206kts
17-Sep-20 18:14 40.776531 -122.447277 71 7626ft 234kts
17-Sep-20 18:15 40.791046 -122.367068 88 7233ft 228kts
17-Sep-20 18:16 40.775639 -122.314746 164 5586ft 150kts
17-Sep-20 18:17 40.739693 -122.297206 170 4406ft 108kts
17-Sep-20 18:18 40.711573 -122.294108 183 4410ft 104kts
17-Sep-20 18:19 40.676370 -122.294614 179 3163ft 141kts
17-Sep-20 18:20 40.644306 -122.294271 182 3000ft 97kts
17-Sep-20 18:21 40.616914 -122.294662 182 2715ft 100kts
17-Sep-20 18:22 40.589300 -122.294489 181 2030ft 98kts
17-Sep-20 18:23 40.562634 -122.294905 178 1412ft 94kts
17-Sep-20 18:24 40.535798 -122.294780 181 774ft 97kts
17-Sep-20 18:25 40.512259 -122.294847 180 495ft 74kts
17-Sep-20 18:26 40.501543 -122.295973 312 490ft 0kts
17-Sep-20 18:27 40.503331 -122.296342 1 491ft 28kts
17-Sep-20 18:28 40.507767 -122.298168 266 493ft 13kts
17-Sep-20 18:29 40.509631 -122.298079 353 494ft 0kts
17-Sep-20 18:30 40.509632 -122.298079 354 494ft 0kts

Navigation Log

Ident Type
Flight plan parsing failed, navigation log unavailable